ADDS METAR Data INFO
IDs: Format: Raw Decoded Include TAF

Data at: 1749 UTC 21 Oct 2017

KHPN 211656Z 28004KT 10SM CLR 24/03 A3031 RMK AO2 SLP263 T02440028
KHPN 211556Z 32003KT 10SM CLR 24/03 A3033 RMK AO2 SLP266 T02390033
KHPN 211456Z 29005KT 10SM CLR 21/03 A3033 RMK AO2 SLP269 T02110028 51009
KHPN 211356Z 32004KT 10SM CLR 19/03 A3033 RMK AO2 SLP269 T01940033
KHPN 211256Z 31005KT 10SM CLR 15/04 A3033 RMK AO2 SLP269 T01500044
KHPN 211156Z 30006KT 10SM CLR 11/06 A3030 RMK AO2 SLP262 T01060056 10117 20078 53015
KHPN 211056Z 29007KT 10SM CLR 10/05 A3028 RMK AO2 SLP253 T01000050
KHPN 210956Z 30005KT 10SM CLR 10/05 A3027 RMK AO2 SLP249 T01000050
KHPN 210856Z 32007KT 10SM CLR 08/04 A3026 RMK AO2 SLP246 T00780039 51010
KHPN 210756Z 31004KT 10SM CLR 09/04 A3025 RMK AO2 SLP244 T00890039
KHPN 210656Z 30003KT 10SM CLR 10/06 A3024 RMK AO2 SLP240 T01000056
KHPN 210556Z 30007KT 10SM CLR 12/02 A3023 RMK AO2 SLP234 T01220022 10156 20106 53009
KHPN 210456Z 31004KT 10SM CLR 11/03 A3021 RMK AO2 SLP230 T01110033 402220100
KHPN 210356Z 31007KT 10SM CLR 12/08 A3021 RMK AO2 SLP229 T01220078
KHPN 210256Z 30004KT 10SM CLR 13/06 A3020 RMK AO2 SLP225 T01330061 53017
KHPN 210156Z 00000KT 10SM CLR 13/07 A3018 RMK AO2 SLP219 T01280072
KHPN 210056Z 00000KT 10SM CLR 13/06 A3016 RMK AO2 SLP212 T01280061
KHPN 202356Z 32004KT 10SM CLR 14/04 A3015 RMK AO2 SLP209 T01440044 10222 20144 51020
KHPN 202256Z 31005KT 10SM CLR 17/03 A3014 RMK AO2 SLP205 T01670033
KHPN 202156Z 31003KT 10SM CLR 18/03 A3011 RMK AO2 SLP194 T01830033
KHPN 202056Z 31007KT 10SM CLR 22/01 A3009 RMK AO2 SLP187 T02220006 55003
KHPN 201956Z 29009KT 10SM CLR 22/01 A3009 RMK AO2 SLP187 T02220006
KHPN 201856Z 29012KT 10SM CLR 22/01 A3010 RMK AO2 SLP189 T02170011
KHPN 201756Z 29010KT 10SM CLR 21/01 A3010 RMK AO2 SLP190 T02060006 10211 20122 58018
KHPN 201656Z 30011KT 10SM CLR 20/M01 A3012 RMK AO2 SLP196 T02001006
KHPN 201556Z 30008KT 10SM CLR 19/01 A3014 RMK AO2 SLP204 T01940006
KHPN 201456Z 28008KT 10SM CLR 18/02 A3015 RMK AO2 SLP208 T01780022 50007
KHPN 201356Z 30009KT 10SM CLR 17/03 A3016 RMK AO2 SLP211 T01670033
KHPN 201256Z 30008KT 10SM CLR 15/07 A3015 RMK AO2 SLP208 T01500067
KHPN 201156Z 30003KT 10SM CLR 12/07 A3013 RMK AO2 SLP203 T01220072 10144 20100 53018
KHPN 201056Z 23003KT 10SM CLR 11/07 A3010 RMK AO2 SLP194 T01060072
KHPN 200956Z 24004KT 10SM CLR 13/08 A3008 RMK AO2 SLP184 T01330078
KHPN 200856Z 26005KT 10SM CLR 13/08 A3008 RMK AO2 SLP183 T01330078 53004
KHPN 200756Z 26003KT 10SM CLR 12/08 A3006 RMK AO2 SLP177 T01220078
KHPN 200656Z 29004KT 10SM CLR 14/08 A3006 RMK AO2 SLP177 T01390078
KHPN 200556Z AUTO 32004KT 10SM CLR 14/08 A3007 RMK AO2 SLP179 T01390078 10172 20117 56001